Time;durP1;ratioP1;P1;durP2;ratioP2;P2;SDS_P1;SDS_P2;PMS_P1;PMS_P2;Temp;Humidity;BMP_temperature;BMP_pressure;BME280_temperature;BME280_humidity;BME280_pressure;Samples;Min_cycle;Max_cycle;Signal;HPM_P1;HPM_P2
2022/10/25 00:00:38;;;;;;;1.20;0.90;;;;;;;15.28;73.27;99438.50;5110251;28;20200;-63
2022/10/25 00:03:05;;;;;;;3.33;1.40;;;;;;;15.16;73.33;99436.03;5109945;28;20236;-57
2022/10/25 00:05:32;;;;;;;0.83;0.80;;;;;;;15.05;73.65;99443.06;5110113;28;20205;-64
2022/10/25 00:07:59;;;;;;;1.57;0.70;;;;;;;15.10;73.85;99435.75;5110130;28;20496;-57
2022/10/25 00:10:26;;;;;;;0.90;0.60;;;;;;;15.06;73.78;99430.03;5110890;28;20581;-58
2022/10/25 00:12:54;;;;;;;0.93;0.63;;;;;;;15.00;73.69;99427.97;5110097;28;20220;-57
2022/10/25 00:15:22;;;;;;;0.60;0.50;;;;;;;15.01;73.79;99427.06;5109956;28;20611;-57
2022/10/25 00:17:49;;;;;;;0.40;0.40;;;;;;;15.00;74.01;99420.25;5110701;28;20588;-57
2022/10/25 00:20:16;;;;;;;0.70;0.70;;;;;;;15.06;74.57;99430.03;5109774;28;20701;-64
2022/10/25 00:22:43;;;;;;;0.60;0.50;;;;;;;15.01;74.29;99423.63;5110169;28;20212;-64
2022/10/25 00:25:10;;;;;;;0.73;0.57;;;;;;;14.95;74.57;99424.97;5110067;28;20731;-57
2022/10/25 00:27:38;;;;;;;0.40;0.40;;;;;;;14.88;74.92;99418.72;5110075;28;20212;-64
2022/10/25 00:30:08;;;;;;;0.30;0.30;;;;;;;14.89;74.77;99417.78;5109634;28;20228;-57
2022/10/25 00:32:36;;;;;;;0.37;0.33;;;;;;;14.99;74.50;99418.63;5110034;28;20201;-57
2022/10/25 00:35:03;;;;;;;0.37;0.37;;;;;;;15.00;74.74;99422.03;5110161;28;20221;-57
2022/10/25 00:37:30;;;;;;;0.30;0.30;;;;;;;14.96;74.62;99413.75;5110149;28;20401;-57
2022/10/25 00:39:57;;;;;;;0.77;0.77;;;;;;;14.94;75.04;99416.44;5109758;28;20222;-57
2022/10/25 00:42:26;;;;;;;0.70;0.70;;;;;;;14.94;75.32;99418.19;5113232;28;20205;-57
2022/10/25 00:44:55;;;;;;;0.77;0.77;;;;;;;14.87;75.25;99409.38;5113348;28;20233;-64
2022/10/25 00:47:38;;;;;;;0.60;0.60;;;;;;;14.89;75.17;99408.31;5113842;28;20688;-63
2022/10/25 00:50:13;;;;;;;0.43;0.43;;;;;;;14.85;75.61;99406.13;5113557;28;20277;-57
2022/10/25 00:52:43;;;;;;;0.77;0.77;;;;;;;14.87;75.57;99401.66;5114117;28;20220;-57
2022/10/25 00:55:12;;;;;;;0.53;0.53;;;;;;;14.83;75.84;99403.66;5113479;28;20575;-57
2022/10/25 00:57:43;;;;;;;0.50;0.50;;;;;;;14.75;76.80;99405.25;5113319;28;20201;-63
2022/10/25 01:00:11;;;;;;;0.70;0.70;;;;;;;14.76;76.01;99401.75;5113252;28;20220;-57
2022/10/25 01:02:39;;;;;;;0.80;0.80;;;;;;;14.65;76.36;99406.03;5113574;28;20228;-64
2022/10/25 01:05:08;;;;;;;1.23;0.97;;;;;;;14.65;76.56;99405.22;5113386;28;20252;-57
2022/10/25 01:07:35;;;;;;;0.50;0.50;;;;;;;14.56;77.15;99400.84;5112784;27;20197;-57
2022/10/25 01:10:02;;;;;;;0.43;0.43;;;;;;;14.60;76.39;99403.06;5113369;28;20609;-57
2022/10/25 01:12:28;;;;;;;0.53;0.37;;;;;;;14.65;76.46;99395.75;5113455;28;20208;-57
2022/10/25 01:14:55;;;;;;;0.70;0.70;;;;;;;14.58;76.92;99389.50;5113416;28;20233;-63
2022/10/25 01:17:31;;;;;;;0.50;0.50;;;;;;;14.64;76.46;99388.97;5113336;28;20197;-64
2022/10/25 01:20:34;;;;;;;0.37;0.37;;;;;;;14.62;76.33;99390.84;5113187;28;20221;-57
2022/10/25 01:23:17;;;;;;;0.47;0.47;;;;;;;14.58;76.17;99378.41;5110854;27;20204;-63
2022/10/25 01:26:06;;;;;;;0.70;0.70;;;;;;;14.59;76.07;99375.66;5112989;28;20185;-64
2022/10/25 01:28:45;;;;;;;0.50;0.50;;;;;;;14.61;76.15;99373.78;5113072;28;20228;-57
2022/10/25 01:31:24;;;;;;;0.73;0.70;;;;;;;14.52;76.26;99371.19;5112959;28;20203;-64
2022/10/25 01:33:57;;;;;;;0.93;0.80;;;;;;;14.48;76.60;99373.16;5112778;28;20628;-57
2022/10/25 01:36:37;;;;;;;0.60;0.53;;;;;;;14.56;76.48;99365.63;5112935;28;20190;-64
2022/10/25 01:39:10;;;;;;;0.47;0.47;;;;;;;14.56;76.43;99369.97;5112815;28;20228;-57
2022/10/25 01:41:49;;;;;;;0.30;0.30;;;;;;;14.50;76.69;99360.97;5113048;28;20585;-63
2022/10/25 01:44:29;;;;;;;0.60;0.60;;;;;;;14.46;76.40;99364.78;5112946;28;20636;-57
2022/10/25 01:47:02;;;;;;;0.47;0.47;;;;;;;14.51;76.69;99367.75;5113000;28;20661;-60
2022/10/25 01:49:41;;;;;;;0.20;0.20;;;;;;;14.51;76.81;99357.47;5112980;28;20718;-57
2022/10/25 01:52:08;;;;;;;0.60;0.60;;;;;;;14.40;77.05;99360.13;5112092;28;20201;-64
2022/10/25 01:54:35;;;;;;;0.67;0.67;;;;;;;14.41;76.67;99352.28;5112518;28;20600;-64
2022/10/25 01:57:17;;;;;;;0.30;0.30;;;;;;;14.47;76.54;99356.09;5112543;28;20197;-64
2022/10/25 02:00:02;;;;;;;0.60;0.60;;;;;;;14.49;76.26;99349.06;5112442;28;20604;-57
2022/10/25 02:02:38;;;;;;;0.47;0.47;;;;;;;14.43;76.09;99350.41;5112829;28;20200;-57
2022/10/25 02:05:14;;;;;;;0.50;0.50;;;;;;;14.44;76.00;99357.16;5112156;28;20235;-57
2022/10/25 02:07:43;;;;;;;0.80;0.60;;;;;;;14.39;76.35;99348.19;5112292;28;20188;-57
2022/10/25 02:10:16;;;;;;;1.17;1.00;;;;;;;14.40;76.64;99349.84;5111961;28;20251;-57
2022/10/25 02:12:51;;;;;;;0.70;0.70;;;;;;;14.40;76.67;99355.00;5112228;28;20212;-64
2022/10/25 02:15:25;;;;;;;0.77;0.37;;;;;;;14.37;76.38;99339.78;5111833;28;20228;-64
2022/10/25 02:17:58;;;;;;;0.40;0.40;;;;;;;14.37;76.94;99350.06;5112215;28;20201;-57
2022/10/25 02:20:29;;;;;;;0.50;0.50;;;;;;;14.29;76.85;99352.50;5111937;28;20201;-57
2022/10/25 02:22:58;;;;;;;0.13;0.13;;;;;;;14.30;77.08;99348.97;5111917;28;20201;-64
2022/10/25 02:25:26;;;;;;;0.53;0.43;;;;;;;14.31;76.57;99355.75;5111711;28;20732;-63
2022/10/25 02:27:55;;;;;;;0.23;0.23;;;;;;;14.20;76.57;99349.75;5111938;28;20205;-64
2022/10/25 02:30:21;;;;;;;0.50;0.50;;;;;;;14.23;76.78;99354.63;5111594;28;20236;-57
2022/10/25 02:32:48;;;;;;;0.57;0.57;;;;;;;14.14;77.37;99349.44;5111823;28;20207;-57
2022/10/25 02:35:18;;;;;;;0.47;0.47;;;;;;;14.11;76.93;99353.09;5111591;27;20295;-57
2022/10/25 02:37:45;;;;;;;0.17;0.17;;;;;;;14.16;76.92;99348.34;5112140;28;20205;-63
2022/10/25 02:40:13;;;;;;;0.40;0.40;;;;;;;14.16;77.11;99352.69;5111410;27;20224;-57
2022/10/25 02:42:39;;;;;;;0.60;0.50;;;;;;;14.10;77.20;99348.88;5111647;28;20203;-63
2022/10/25 02:45:08;;;;;;;0.50;0.50;;;;;;;14.08;77.32;99345.63;5111295;28;20624;-57
2022/10/25 02:47:34;;;;;;;0.47;0.47;;;;;;;13.97;78.28;99343.13;5111438;28;20201;-63
2022/10/25 02:50:01;;;;;;;0.30;0.30;;;;;;;14.01;78.07;99342.72;5111384;28;20230;-57
2022/10/25 02:52:30;;;;;;;1.13;0.50;;;;;;;14.03;78.26;99343.44;5111393;28;20600;-63
2022/10/25 02:54:56;;;;;;;0.40;0.40;;;;;;;14.01;78.08;99345.28;5111504;28;20225;-63
2022/10/25 02:57:23;;;;;;;0.40;0.40;;;;;;;13.99;77.62;99348.94;5111278;28;20215;-57
2022/10/25 02:59:50;;;;;;;0.70;0.70;;;;;;;13.97;77.54;99343.13;5111393;28;20718;-57
2022/10/25 03:02:17;;;;;;;0.60;0.50;;;;;;;13.93;77.49;99339.16;5111396;28;20200;-58
2022/10/25 03:04:44;;;;;;;0.53;0.53;;;;;;;13.94;78.26;99339.03;5110420;28;20233;-64
2022/10/25 03:07:10;;;;;;;0.10;0.10;;;;;;;13.80;78.00;99337.59;5110919;28;20197;-64
2022/10/25 03:09:39;;;;;;;0.40;0.30;;;;;;;13.88;77.90;99343.88;5111099;28;20228;-63
2022/10/25 03:12:06;;;;;;;0.63;0.33;;;;;;;13.84;78.34;99343.28;5111115;28;20669;-57
2022/10/25 03:14:32;;;;;;;0.70;0.70;;;;;;;13.82;78.22;99340.88;5111215;28;20227;-57
2022/10/25 03:16:59;;;;;;;0.30;0.30;;;;;;;13.75;77.79;99332.00;5111210;28;20663;-64
2022/10/25 03:19:26;;;;;;;0.27;0.27;;;;;;;13.75;78.06;99331.19;5110717;28;20217;-56
2022/10/25 03:21:53;;;;;;;0.40;0.40;;;;;;;13.72;78.39;99329.69;5110758;28;20205;-56
2022/10/25 03:24:20;;;;;;;0.33;0.33;;;;;;;13.67;78.75;99334.41;5110350;28;20241;-58
2022/10/25 03:26:48;;;;;;;0.47;0.47;;;;;;;13.68;78.53;99336.03;5110782;28;20195;-64
2022/10/25 03:29:14;;;;;;;1.40;0.80;;;;;;;13.63;79.28;99338.16;5110641;28;20223;-64
2022/10/25 03:31:41;;;;;;;0.80;0.80;;;;;;;13.65;79.35;99338.03;5110527;28;20200;-56
2022/10/25 03:34:08;;;;;;;0.50;0.50;;;;;;;13.57;79.42;99341.22;5110596;28;20360;-57
2022/10/25 03:36:35;;;;;;;0.50;0.50;;;;;;;13.55;79.91;99343.09;5110808;28;20205;-57
2022/10/25 03:39:02;;;;;;;0.40;0.40;;;;;;;13.50;80.23;99348.63;5110787;28;20598;-63
2022/10/25 03:41:28;;;;;;;0.60;0.60;;;;;;;13.46;80.05;99334.38;5110726;28;20202;-57
2022/10/25 03:43:57;;;;;;;0.73;0.73;;;;;;;13.40;80.48;99339.19;5110407;28;20223;-57
2022/10/25 03:46:23;;;;;;;0.30;0.30;;;;;;;13.34;80.22;99336.16;5110403;28;20223;-63
2022/10/25 03:48:50;;;;;;;6.23;1.07;;;;;;;13.35;80.40;99337.81;5110305;28;20217;-57
2022/10/25 03:51:17;;;;;;;0.53;0.53;;;;;;;13.30;80.91;99333.97;5110897;28;20219;-59
2022/10/25 03:53:44;;;;;;;0.27;0.27;;;;;;;13.28;81.29;99328.13;5110358;28;20218;-57
2022/10/25 03:56:11;;;;;;;0.43;0.43;;;;;;;13.34;80.92;99317.38;5110282;28;20199;-63
2022/10/25 03:58:37;;;;;;;0.43;0.40;;;;;;;13.24;81.43;99321.59;5110368;28;20582;-57
2022/10/25 04:01:08;;;;;;;0.40;0.40;;;;;;;13.18;81.58;99325.47;5110375;28;20277;-64
2022/10/25 04:03:35;;;;;;;0.40;0.40;;;;;;;13.25;82.11;99315.50;5110502;28;20597;-57
2022/10/25 04:06:02;;;;;;;1.00;0.67;;;;;;;13.16;82.32;99324.75;5110206;28;20286;-63
2022/10/25 04:08:29;;;;;;;1.10;0.80;;;;;;;13.15;82.39;99325.72;5110542;28;20803;-63
2022/10/25 04:10:56;;;;;;;0.63;0.63;;;;;;;13.13;82.09;99328.38;5110348;28;20202;-63
2022/10/25 04:13:23;;;;;;;0.30;0.30;;;;;;;13.08;82.57;99332.25;5110231;28;20218;-56
2022/10/25 04:15:49;;;;;;;0.30;0.30;;;;;;;13.13;82.05;99332.72;5112221;28;20595;-57
2022/10/25 04:18:18;;;;;;;0.60;0.57;;;;;;;13.10;82.45;99322.69;5114315;28;20207;-57
2022/10/25 04:20:44;;;;;;;1.17;0.90;;;;;;;13.06;82.25;99319.56;5114481;28;20590;-63
2022/10/25 04:23:11;;;;;;;0.50;0.50;;;;;;;13.04;82.53;99323.16;5114204;28;20198;-63
2022/10/25 04:25:38;;;;;;;0.70;0.70;;;;;;;13.01;82.54;99318.28;5113891;28;20705;-63
2022/10/25 04:28:05;;;;;;;0.57;0.30;;;;;;;12.85;83.06;99319.47;5114199;28;20198;-56
2022/10/25 04:30:32;;;;;;;0.63;0.60;;;;;;;12.82;83.36;99314.56;5114429;28;20202;-63
2022/10/25 04:32:58;;;;;;;0.43;0.43;;;;;;;12.81;83.35;99312.94;5114222;28;20198;-64
2022/10/25 04:35:27;;;;;;;0.97;0.93;;;;;;;12.83;83.58;99316.22;5114345;28;20649;-64
2022/10/25 04:37:57;;;;;;;0.43;0.40;;;;;;;12.84;83.66;99315.28;5114109;28;20202;-56
2022/10/25 04:40:24;;;;;;;0.50;0.50;;;;;;;12.88;84.10;99311.50;5113853;28;20208;-63
2022/10/25 04:42:51;;;;;;;0.73;0.50;;;;;;;12.82;84.20;99309.44;5114223;28;20201;-63
2022/10/25 04:45:18;;;;;;;0.20;0.20;;;;;;;12.78;84.82;99308.06;5113657;28;20238;-63
2022/10/25 04:47:44;;;;;;;6.63;0.63;;;;;;;12.80;84.66;99306.19;5114111;28;20202;-64
2022/10/25 04:50:11;;;;;;;0.33;0.33;;;;;;;12.75;85.03;99310.84;5113548;28;20226;-63
2022/10/25 04:52:39;;;;;;;0.50;0.50;;;;;;;12.78;85.39;99309.81;5113587;28;20198;-64
2022/10/25 04:55:07;;;;;;;0.40;0.40;;;;;;;12.71;86.17;99309.44;5113373;28;20226;-57
2022/10/25 04:57:34;;;;;;;0.33;0.33;;;;;;;12.72;87.00;99307.72;5113641;28;20205;-63
2022/10/25 05:00:00;;;;;;;1.40;0.87;;;;;;;12.78;87.00;99310.63;5113586;28;20221;-57
2022/10/25 05:02:27;;;;;;;0.40;0.40;;;;;;;12.81;87.48;99318.06;5113786;28;20479;-56
2022/10/25 05:04:54;;;;;;;0.57;0.57;;;;;;;12.87;87.35;99316.78;5113194;27;20233;-63
2022/10/25 05:07:21;;;;;;;0.27;0.27;;;;;;;12.93;87.35;99320.63;5113457;28;20201;-57
2022/10/25 05:09:49;;;;;;;0.53;0.53;;;;;;;13.00;86.77;99316.63;5113375;28;20239;-63
2022/10/25 05:12:17;;;;;;;0.70;0.60;;;;;;;13.07;86.43;99328.06;5113300;28;20202;-63
2022/10/25 05:14:44;;;;;;;1.03;0.83;;;;;;;13.09;86.28;99321.88;5113598;28;20227;-57
2022/10/25 05:17:10;;;;;;;0.80;0.50;;;;;;;13.12;86.38;99326.75;5113159;28;20239;-57
2022/10/25 05:19:37;;;;;;;0.40;0.40;;;;;;;13.11;86.50;99321.75;5113109;28;20230;-56
2022/10/25 05:22:04;;;;;;;0.87;0.50;;;;;;;13.14;86.60;99327.44;5113274;28;20194;-56
2022/10/25 05:24:31;;;;;;;0.60;0.43;;;;;;;13.22;86.26;99328.59;5113356;27;20222;-57
2022/10/25 05:26:59;;;;;;;0.70;0.70;;;;;;;13.28;86.31;99328.94;5112252;28;20197;-57
2022/10/25 05:29:26;;;;;;;0.23;0.23;;;;;;;13.35;85.97;99337.81;5113374;28;20677;-63
2022/10/25 05:31:53;;;;;;;0.40;0.40;;;;;;;13.41;85.42;99338.25;5112998;28;20211;-64
2022/10/25 05:34:20;;;;;;;0.50;0.50;;;;;;;13.47;85.02;99335.22;5113038;28;20232;-56
2022/10/25 05:36:47;;;;;;;1.30;1.20;;;;;;;13.56;84.75;99344.75;5112799;28;20198;-57
2022/10/25 05:39:14;;;;;;;0.47;0.47;;;;;;;13.62;84.83;99344.25;5112891;28;20218;-57
2022/10/25 05:41:40;;;;;;;0.40;0.40;;;;;;;13.72;84.47;99347.69;5112716;28;20294;-57
2022/10/25 05:44:09;;;;;;;0.30;0.30;;;;;;;13.83;84.07;99346.81;5112740;28;20617;-63
2022/10/25 05:46:36;;;;;;;0.63;0.63;;;;;;;13.91;83.60;99361.63;5112852;28;20608;-64
2022/10/25 05:49:03;;;;;;;0.43;0.43;;;;;;;14.00;83.67;99359.09;5112788;28;20230;-56
2022/10/25 05:51:31;;;;;;;0.23;0.23;;;;;;;14.09;83.22;99378.09;5112909;28;20197;-63
2022/10/25 05:54:00;;;;;;;0.43;0.40;;;;;;;14.21;82.67;99382.22;5112948;28;20217;-57
2022/10/25 05:56:28;;;;;;;0.33;0.33;;;;;;;14.35;82.58;99382.84;5112577;28;20200;-64
2022/10/25 05:58:56;;;;;;;0.67;0.67;;;;;;;14.55;81.94;99391.50;5112566;28;20231;-57
2022/10/25 06:01:26;;;;;;;0.63;0.63;;;;;;;14.71;81.38;99387.50;5112174;28;20246;-64
2022/10/25 06:03:54;;;;;;;0.50;0.50;;;;;;;14.87;80.82;99399.09;5112489;28;20229;-63
2022/10/25 06:06:22;;;;;;;0.60;0.60;;;;;;;15.05;80.39;99397.50;5111981;28;20224;-57
2022/10/25 06:08:49;;;;;;;0.30;0.30;;;;;;;15.24;80.41;99401.06;5112177;28;20232;-64
2022/10/25 06:11:18;;;;;;;0.97;0.70;;;;;;;15.49;79.18;99404.91;5112074;28;20200;-57
2022/10/25 06:13:45;;;;;;;0.40;0.40;;;;;;;15.60;78.26;99407.34;5111944;28;20218;-57
2022/10/25 06:16:15;;;;;;;0.63;0.63;;;;;;;15.73;77.88;99404.53;5111862;28;20200;-64
2022/10/25 06:18:43;;;;;;;0.70;0.70;;;;;;;15.97;76.61;99401.53;5112196;28;20705;-64
2022/10/25 06:21:12;;;;;;;0.33;0.33;;;;;;;16.04;75.24;99418.91;5111814;28;20200;-57
2022/10/25 06:23:42;;;;;;;0.40;0.40;;;;;;;16.17;74.43;99410.06;5112035;28;20233;-64
2022/10/25 06:26:11;;;;;;;2.67;1.10;;;;;;;16.49;73.39;99415.69;5111864;28;20230;-57
2022/10/25 06:28:38;;;;;;;0.60;0.60;;;;;;;16.67;72.22;99418.34;5111814;28;20639;-57
2022/10/25 06:31:08;;;;;;;0.50;0.40;;;;;;;16.86;71.87;99420.06;5111615;28;20193;-57
2022/10/25 06:33:35;;;;;;;1.67;1.43;;;;;;;17.19;70.27;99418.69;5111710;28;20220;-57
2022/10/25 06:36:06;;;;;;;0.60;0.60;;;;;;;17.40;68.88;99415.81;5111630;28;20204;-57
2022/10/25 06:38:33;;;;;;;1.47;0.73;;;;;;;17.57;67.65;99403.88;5110491;28;20221;-64
2022/10/25 06:41:01;;;;;;;0.80;0.67;;;;;;;17.53;67.80;99405.09;5111492;28;20207;-57
2022/10/25 06:43:29;;;;;;;0.80;0.80;;;;;;;17.77;68.11;99406.28;5111871;28;20228;-64
2022/10/25 06:45:56;;;;;;;0.50;0.50;;;;;;;17.76;67.06;99400.31;5111404;28;20233;-57
2022/10/25 06:48:23;;;;;;;0.80;0.80;;;;;;;17.56;67.63;99404.00;5111471;28;20223;-64
2022/10/25 06:51:01;;;;;;;0.53;0.53;;;;;;;17.55;67.93;99397.22;5111693;28;20683;-57
2022/10/25 06:53:29;;;;;;;2.17;1.17;;;;;;;17.52;68.03;99398.31;5111694;28;20267;-57
2022/10/25 06:56:00;;;;;;;0.73;0.73;;;;;;;17.27;68.60;99389.50;5111375;28;20549;-64
2022/10/25 06:58:26;;;;;;;0.53;0.53;;;;;;;17.08;70.23;99379.31;5111028;28;20230;-64
2022/10/25 07:00:53;;;;;;;0.60;0.60;;;;;;;16.99;70.37;99388.75;5111067;28;20209;-64
2022/10/25 07:03:28;;;;;;;1.40;0.83;;;;;;;17.07;70.34;99377.66;5111245;28;20217;-64
2022/10/25 07:05:55;;;;;;;1.93;0.73;;;;;;;17.13;70.37;99379.66;5111388;28;20217;-56
2022/10/25 07:08:22;;;;;;;0.60;0.60;;;;;;;17.03;70.86;99376.34;5110858;28;20229;-57
2022/10/25 07:10:54;;;;;;;1.13;0.97;;;;;;;17.03;70.24;99376.34;5111327;28;20652;-65
2022/10/25 07:13:21;;;;;;;0.63;0.50;;;;;;;17.10;69.90;99377.38;5110739;28;20668;-64
2022/10/25 07:15:47;;;;;;;0.70;0.67;;;;;;;17.04;70.39;99388.28;5110688;28;20201;-57
2022/10/25 07:18:14;;;;;;;1.00;0.70;;;;;;;17.18;70.60;99374.88;5110754;28;20213;-64
2022/10/25 07:20:45;;;;;;;0.80;0.70;;;;;;;17.38;69.57;99386.72;5110780;28;20205;-60
2022/10/25 07:23:12;;;;;;;1.53;1.07;;;;;;;17.36;70.34;99383.47;5110678;28;20198;-57
2022/10/25 07:25:39;;;;;;;1.90;0.90;;;;;;;17.56;69.75;99368.63;5110536;28;20234;-64
2022/10/25 07:28:07;;;;;;;1.33;1.20;;;;;;;17.84;68.63;99377.13;5110898;28;20702;-64
2022/10/25 07:30:34;;;;;;;1.10;0.67;;;;;;;18.35;69.00;99373.88;5110774;28;20194;-64
2022/10/25 07:33:02;;;;;;;1.70;1.20;;;;;;;18.61;67.42;99379.03;5110885;28;20200;-65
2022/10/25 07:35:29;;;;;;;1.70;1.17;;;;;;;18.79;66.35;99382.38;5110650;28;20204;-64
2022/10/25 07:37:55;;;;;;;1.13;1.03;;;;;;;19.12;65.32;99380.69;5110682;28;20203;-65
2022/10/25 07:40:22;;;;;;;1.57;0.97;;;;;;;19.45;64.91;99378.16;5110515;28;20224;-63
2022/10/25 07:42:49;;;;;;;1.47;1.10;;;;;;;19.46;63.30;99372.03;5110795;27;20261;-64
2022/10/25 07:45:18;;;;;;;1.10;1.00;;;;;;;19.81;63.40;99373.50;5110105;28;20217;-57
2022/10/25 07:47:44;;;;;;;1.20;0.77;;;;;;;19.90;61.56;99371.72;5110476;28;20235;-64
2022/10/25 07:50:11;;;;;;;0.73;0.73;;;;;;;20.13;60.94;99367.47;5109820;28;20228;-65
2022/10/25 07:52:38;;;;;;;2.50;1.10;;;;;;;20.51;60.32;99369.47;5110526;28;20194;-62
2022/10/25 07:55:06;;;;;;;1.40;1.27;;;;;;;20.68;60.37;99372.81;5110112;28;20223;-64
2022/10/25 07:57:32;;;;;;;2.13;0.83;;;;;;;20.57;60.13;99374.03;5110453;28;20594;-57
2022/10/25 07:59:59;;;;;;;2.13;1.10;;;;;;;20.95;59.11;99381.97;5110435;28;20220;-57
2022/10/25 08:02:27;;;;;;;0.93;0.87;;;;;;;21.07;57.84;99385.00;5110417;28;20198;-64
2022/10/25 08:04:54;;;;;;;1.57;1.43;;;;;;;21.34;57.98;99381.09;5110211;28;20726;-57
2022/10/25 08:07:21;;;;;;;2.67;1.17;;;;;;;21.83;56.11;99380.75;5110268;28;20233;-57
2022/10/25 08:09:48;;;;;;;1.07;0.93;;;;;;;22.30;55.71;99387.47;5110334;28;20227;-64
2022/10/25 08:12:16;;;;;;;1.10;1.00;;;;;;;22.29;54.09;99391.09;5110155;28;20210;-57
2022/10/25 08:14:43;;;;;;;1.60;1.37;;;;;;;22.03;54.96;99375.84;5110113;28;20224;-57
2022/10/25 08:17:10;;;;;;;2.80;1.53;;;;;;;21.82;53.76;99390.34;5110007;28;20198;-65
2022/10/25 08:19:38;;;;;;;1.37;1.17;;;;;;;22.17;54.42;99384.69;5110099;28;20227;-58
2022/10/25 08:22:05;;;;;;;1.10;1.00;;;;;;;22.59;53.12;99391.88;5109989;28;20200;-65
2022/10/25 08:24:33;;;;;;;1.38;1.00;;;;;;;22.95;51.12;99394.56;5110300;28;20225;-65
2022/10/25 08:27:00;;;;;;;2.60;1.77;;;;;;;23.52;50.98;99386.91;5110094;28;20728;-64
2022/10/25 08:29:27;;;;;;;1.35;1.25;;;;;;;23.39;50.81;99382.38;5110126;28;20221;-65
2022/10/25 08:31:54;;;;;;;3.15;1.73;;;;;;;23.54;50.23;99380.50;5110001;28;20189;-58
2022/10/25 08:34:20;;;;;;;1.45;0.80;;;;;;;;;;5110145;28;20221;-58
2022/10/25 08:36:50;;;;;;;1.40;1.30;;;;;;;23.78;49.91;99375.91;5109763;28;20201;-65
2022/10/25 08:39:17;;;;;;;1.58;1.02;;;;;;;24.13;48.66;99374.13;5109808;28;20221;-58
2022/10/25 08:41:51;;;;;;;1.20;1.10;;;;;;;24.10;49.09;99375.31;5109801;28;20229;-58
2022/10/25 08:44:26;;;;;;;1.60;1.27;;;;;;;24.17;48.55;99373.56;5110258;28;20581;-65
2022/10/25 08:46:59;;;;;;;2.20;1.60;;;;;;;24.14;48.28;99366.13;5109582;28;20229;-57
2022/10/25 08:49:33;;;;;;;1.92;1.35;;;;;;;24.56;48.73;99374.81;5110250;28;20232;-65
2022/10/25 08:52:05;;;;;;;1.55;1.27;;;;;;;24.43;48.01;99369.50;5110000;28;20200;-59
2022/10/25 08:54:35;;;;;;;1.58;1.17;;;;;;;24.88;48.72;99372.50;5109907;28;20228;-65
2022/10/25 08:57:10;;;;;;;2.30;1.15;;;;;;;24.42;47.40;99367.06;5109744;28;20198;-60
2022/10/25 08:59:41;;;;;;;3.60;1.45;;;;;;;24.11;47.03;99374.31;5110104;28;20225;-58
2022/10/25 09:07:19;;;;;;;3.17;1.70;;;;;;;23.95;48.19;99378.03;5088224;27;20550;-57
